Time;durP1;ratioP1;P1;durP2;ratioP2;P2;SDS_P1;SDS_P2;PMS_P1;PMS_P2;Temp;Humidity;BMP_temperature;BMP_pressure;BME280_temperature;BME280_humidity;BME280_pressure;Samples;Min_cycle;Max_cycle;Signal;HPM_P1;HPM_P2
2022/10/29 00:02:16;;;;;;;8.85;4.80;;;;;;;20.99;62.70;100315.22;5056160;28;20049;-63
2022/10/29 00:04:43;;;;;;;7.60;3.58;;;;;;;20.86;63.37;100302.25;5044886;28;20068;-63
2022/10/29 00:07:10;;;;;;;7.82;4.10;;;;;;;20.15;65.36;100300.63;5043185;28;20154;-63
2022/10/29 00:09:36;;;;;;;6.03;4.03;;;;;;;19.64;66.76;100298.81;5053475;28;20060;-63
2022/10/29 00:12:03;;;;;;;6.85;4.65;;;;;;;19.39;68.55;100319.69;5050282;28;20041;-63
2022/10/29 00:14:30;;;;;;;9.85;4.57;;;;;;;19.07;70.47;100338.22;5050719;28;20539;-62
2022/10/29 00:16:57;;;;;;;12.07;4.95;;;;;;;18.80;71.59;100339.56;5046398;28;20053;-63
2022/10/29 00:19:24;;;;;;;13.10;5.32;;;;;;;18.60;72.82;100339.16;5048942;28;20048;-62
2022/10/29 00:21:51;;;;;;;8.23;4.28;;;;;;;18.20;75.38;100325.31;5051531;28;20049;-64
2022/10/29 00:24:18;;;;;;;11.25;6.07;;;;;;;17.60;77.68;100286.69;5052933;28;20048;-62
2022/10/29 00:26:45;;;;;;;7.30;6.70;;;;;;;17.29;79.39;100290.53;5057059;28;20049;-63
2022/10/29 00:29:12;;;;;;;14.13;7.53;;;;;;;17.22;80.18;100306.31;5048967;28;20052;-63
2022/10/29 00:31:39;;;;;;;10.00;7.00;;;;;;;17.22;80.43;100318.44;5053247;28;20079;-63
2022/10/29 00:34:05;;;;;;;31.38;7.40;;;;;;;17.27;80.92;100292.88;5043840;28;20411;-62
2022/10/29 00:36:32;;;;;;;7.15;5.00;;;;;;;17.36;81.12;100294.88;5049270;28;20068;-62
2022/10/29 00:38:59;;;;;;;8.00;5.78;;;;;;;17.49;81.55;100291.88;5048024;28;20068;-63
2022/10/29 00:41:28;;;;;;;12.65;6.13;;;;;;;17.56;81.62;100282.91;5047445;28;20381;-62
2022/10/29 00:44:13;;;;;;;7.80;4.38;;;;;;;17.60;82.25;100295.16;5047436;28;20052;-63
2022/10/29 00:46:50;;;;;;;9.23;4.80;;;;;;;17.75;81.99;100311.59;5042896;28;20052;-63
2022/10/29 00:49:18;;;;;;;6.32;4.80;;;;;;;17.89;81.82;100399.03;5064637;28;20055;-64
2022/10/29 00:51:46;;;;;;;16.73;15.63;;;;;;;17.72;82.31;100280.38;5047297;28;20056;-63
2022/10/29 00:54:15;;;;;;;19.58;18.48;;;;;;;17.00;83.74;100248.06;5040560;28;20508;-65
2022/10/29 00:56:49;;;;;;;19.20;18.30;;;;;;;16.58;85.19;100293.59;5044836;28;20049;-64
2022/10/29 00:59:17;;;;;;;17.45;16.65;;;;;;;16.55;86.00;100270.88;5043974;28;20049;-64
2022/10/29 01:01:47;;;;;;;19.50;18.50;;;;;;;16.46;86.05;100248.28;5053245;28;20071;-64
2022/10/29 01:04:16;;;;;;;19.90;18.90;;;;;;;16.40;86.75;100257.22;5045524;28;20128;-65
2022/10/29 01:06:43;;;;;;;18.10;17.13;;;;;;;16.35;87.06;100273.13;5054313;28;20052;-67
2022/10/29 01:09:10;;;;;;;18.58;17.58;;;;;;;16.40;87.42;100276.94;5061303;28;20052;-65
2022/10/29 01:11:43;;;;;;;19.10;18.10;;;;;;;16.42;87.88;100244.47;5041864;28;20049;-65
2022/10/29 01:14:21;;;;;;;18.88;17.88;;;;;;;16.41;88.38;100250.41;5047940;28;20052;-66
2022/10/29 01:17:02;;;;;;;19.08;18.08;;;;;;;16.45;88.73;100245.81;5048141;28;20507;-65
2022/10/29 01:19:54;;;;;;;18.73;17.75;;;;;;;16.44;88.45;100213.94;5047764;28;20064;-64
2022/10/29 01:22:34;;;;;;;18.77;17.77;;;;;;;16.41;89.04;100179.94;5051543;28;20053;-64
2022/10/29 01:25:25;;;;;;;18.58;17.63;;;;;;;16.41;89.14;100202.50;5049062;28;20049;-64
2022/10/29 01:28:10;;;;;;;18.35;17.45;;;;;;;16.45;89.26;100184.63;5041247;28;20042;-64
2022/10/29 01:31:00;;;;;;;18.70;17.80;;;;;;;16.35;89.69;100168.84;5048288;28;20049;-65
2022/10/29 01:33:29;;;;;;;;;;;;;;;16.23;90.60;100196.81;5049733;28;20045;-63
2022/10/29 01:36:08;;;;;;;18.65;17.75;;;;;;;16.41;90.02;100197.72;5044858;28;20375;-63
2022/10/29 01:39:23;;;;;;;18.35;17.45;;;;;;;16.42;89.94;100204.19;5048129;28;20057;-64
2022/10/29 01:42:01;;;;;;;18.70;17.80;;;;;;;16.48;90.00;100195.25;5045389;28;20052;-64
2022/10/29 01:44:34;;;;;;;18.15;17.25;;;;;;;16.49;90.09;100193.25;5052687;28;20048;-64
2022/10/29 01:47:03;;;;;;;18.55;17.65;;;;;;;16.48;90.33;100185.97;5046892;28;20053;-64
2022/10/29 01:49:39;;;;;;;19.10;18.10;;;;;;;16.47;90.10;100173.00;5043979;28;20046;-65
2022/10/29 01:52:09;;;;;;;25.67;24.48;;;;;;;16.47;90.33;100178.63;5048702;28;20059;-64
2022/10/29 01:54:41;;;;;;;18.83;17.83;;;;;;;16.41;90.42;100182.78;5049976;28;20534;-65
2022/10/29 01:57:32;;;;;;;18.38;17.48;;;;;;;16.30;90.72;100202.81;5047917;28;20060;-64
2022/10/29 02:00:19;;;;;;;20.50;19.02;;;;;;;16.22;91.01;100172.63;5043465;28;20419;-65
2022/10/29 02:03:04;;;;;;;18.95;18.05;;;;;;;16.16;91.21;100173.94;5045714;28;20056;-66
2022/10/29 02:06:11;;;;;;;18.77;17.88;;;;;;;16.17;91.66;100177.56;5051771;28;20053;-65
2022/10/29 02:08:43;;;;;;;18.73;17.83;;;;;;;16.16;91.63;100159.03;5047328;28;20159;-64
2022/10/29 02:11:53;;;;;;;18.65;17.75;;;;;;;16.03;91.76;100150.41;5047735;28;20072;-65
2022/10/29 02:14:28;;;;;;;18.23;17.33;;;;;;;16.08;91.72;100155.84;5015709;28;20056;-65
2022/10/29 02:16:55;;;;;;;17.85;16.95;;;;;;;16.13;91.86;100135.16;5016036;28;20060;-66
2022/10/29 02:19:22;;;;;;;17.35;16.55;;;;;;;16.05;91.78;100127.53;5037750;28;20087;-65
2022/10/29 02:21:50;;;;;;;17.05;16.25;;;;;;;16.25;91.58;100149.44;5046986;28;20475;-64
2022/10/29 02:24:17;;;;;;;16.52;15.73;;;;;;;16.31;91.63;100148.13;5049218;28;20053;-65
2022/10/29 02:26:43;;;;;;;16.23;15.52;;;;;;;16.38;91.45;100138.38;5052260;28;20048;-65
2022/10/29 02:29:10;;;;;;;14.68;14.07;;;;;;;16.46;91.28;100143.16;5048751;28;20048;-65
2022/10/29 02:31:37;;;;;;;14.32;13.73;;;;;;;16.48;90.80;100136.06;5046563;28;20529;-64
2022/10/29 02:34:04;;;;;;;14.07;13.48;;;;;;;16.52;90.88;100127.75;5048830;28;20053;-65
2022/10/29 02:36:30;;;;;;;12.55;12.05;;;;;;;16.56;91.16;100118.31;5048638;28;20523;-64
2022/10/29 02:38:57;;;;;;;11.82;11.32;;;;;;;16.55;90.68;100108.19;5049260;28;20076;-64
2022/10/29 02:41:24;;;;;;;11.57;11.07;;;;;;;16.60;90.99;100098.72;5048960;28;20041;-64
2022/10/29 02:43:51;;;;;;;10.57;10.02;;;;;;;16.63;91.07;100106.53;5049819;28;20078;-63
2022/10/29 02:46:20;;;;;;;8.55;8.15;;;;;;;16.70;91.00;100112.50;5046547;28;20446;-64
2022/10/29 02:48:47;;;;;;;6.32;6.03;;;;;;;16.76;91.11;100108.38;5046324;28;20468;-64
2022/10/29 02:51:15;;;;;;;7.20;6.25;;;;;;;16.85;91.25;100130.09;5045976;28;20075;-63
2022/10/29 02:53:43;;;;;;;6.00;5.70;;;;;;;16.93;91.23;100138.56;5045835;28;20053;-63
2022/10/29 02:56:10;;;;;;;4.50;4.30;;;;;;;16.98;90.94;100132.72;5046249;28;20131;-63
2022/10/29 02:58:36;;;;;;;8.05;7.20;;;;;;;17.03;90.81;100143.03;5049204;28;20037;-63
2022/10/29 03:01:05;;;;;;;13.02;8.10;;;;;;;17.11;90.35;100136.53;5045364;28;20049;-63
2022/10/29 03:03:32;;;;;;;12.68;9.43;;;;;;;17.27;90.33;100150.97;5050278;28;20076;-64
2022/10/29 03:05:59;;;;;;;12.30;7.22;;;;;;;17.35;90.05;100163.38;5050903;28;20045;-64
2022/10/29 03:08:26;;;;;;;16.83;8.35;;;;;;;17.49;89.44;100147.88;5054143;28;20053;-63
2022/10/29 03:10:54;;;;;;;13.77;7.70;;;;;;;17.50;88.55;100143.06;5048436;28;20045;-63
2022/10/29 03:13:20;;;;;;;13.80;7.07;;;;;;;17.64;88.20;100149.34;5053758;28;20049;-63
2022/10/29 03:15:47;;;;;;;11.07;7.05;;;;;;;17.77;87.78;100125.72;5049873;28;20071;-65
2022/10/29 03:18:14;;;;;;;12.73;6.95;;;;;;;17.86;87.50;100136.97;5054009;28;20390;-65
2022/10/29 03:20:42;;;;;;;13.32;6.88;;;;;;;17.95;87.17;100114.34;5060226;28;20064;-65
2022/10/29 03:23:08;;;;;;;8.15;6.50;;;;;;;17.96;86.53;100135.78;5046059;28;20076;-65
2022/10/29 03:25:35;;;;;;;7.78;6.55;;;;;;;18.11;85.88;100149.31;5051560;28;20045;-65
2022/10/29 03:28:02;;;;;;;8.52;7.00;;;;;;;18.21;84.97;100136.78;5050750;28;21138;-64
2022/10/29 03:30:29;;;;;;;13.90;6.00;;;;;;;18.24;84.02;100144.59;5047223;28;20048;-64
2022/10/29 03:32:55;;;;;;;11.65;5.72;;;;;;;18.34;83.66;100137.72;5053525;28;20044;-64
2022/10/29 03:35:23;;;;;;;6.70;4.93;;;;;;;18.37;83.37;100156.81;5045695;28;20111;-64
2022/10/29 03:37:51;;;;;;;7.35;4.70;;;;;;;18.37;83.14;100148.34;5049070;28;20520;-65
2022/10/29 03:40:18;;;;;;;5.78;4.10;;;;;;;18.33;83.29;100139.72;5051952;28;20051;-65
2022/10/29 03:42:45;;;;;;;9.30;4.75;;;;;;;18.26;83.19;100132.94;5052775;28;20049;-65
2022/10/29 03:45:13;;;;;;;9.98;5.32;;;;;;;18.20;83.00;100133.13;5053466;28;20496;-64
2022/10/29 03:47:40;;;;;;;7.90;4.72;;;;;;;18.17;83.19;100128.16;5046088;28;20053;-64
2022/10/29 03:50:07;;;;;;;8.30;4.75;;;;;;;18.03;83.81;100121.94;5055233;28;20406;-63
2022/10/29 03:52:34;;;;;;;5.95;5.22;;;;;;;17.62;85.21;100148.03;5050299;28;20056;-64
2022/10/29 03:55:02;;;;;;;7.43;6.72;;;;;;;17.32;86.92;100158.41;5046561;28;20139;-64
2022/10/29 03:57:29;;;;;;;13.30;12.70;;;;;;;17.00;87.66;100175.56;5045746;28;20045;-64
2022/10/29 03:59:56;;;;;;;11.55;11.05;;;;;;;16.83;88.07;100135.25;5049106;28;20056;-64
2022/10/29 04:02:23;;;;;;;12.13;11.32;;;;;;;16.80;88.51;100120.66;5050703;28;20049;-63
2022/10/29 04:04:50;;;;;;;9.02;8.45;;;;;;;16.90;89.15;100129.94;5048852;28;20049;-63
2022/10/29 04:07:18;;;;;;;8.05;7.68;;;;;;;17.10;88.54;100109.50;5047712;28;20388;-65
2022/10/29 04:09:44;;;;;;;8.70;8.23;;;;;;;17.23;88.70;100119.75;5051184;28;20045;-65
2022/10/29 04:12:11;;;;;;;9.82;9.32;;;;;;;17.13;88.71;100122.06;5049458;28;20076;-64
2022/10/29 04:14:38;;;;;;;7.05;6.72;;;;;;;17.11;89.37;100138.53;5051674;28;20049;-64
2022/10/29 04:17:11;;;;;;;7.30;6.90;;;;;;;17.19;89.59;100124.38;5050457;28;20202;-64
2022/10/29 04:19:39;;;;;;;8.10;7.70;;;;;;;17.10;89.67;100134.88;5051131;28;20060;-64
2022/10/29 04:22:06;;;;;;;7.78;7.32;;;;;;;17.19;89.40;100138.50;5049663;28;20045;-63
2022/10/29 04:24:53;;;;;;;6.75;6.35;;;;;;;17.29;89.60;100120.38;5044703;28;20114;-63
2022/10/29 04:27:41;;;;;;;7.40;6.78;;;;;;;17.43;90.02;100117.34;5047023;28;20055;-63
2022/10/29 04:30:27;;;;;;;6.57;6.18;;;;;;;17.59;89.68;100126.09;5045970;28;20049;-63
2022/10/29 04:32:57;;;;;;;6.10;5.80;;;;;;;17.66;90.19;100121.59;5051841;28;20049;-63
2022/10/29 04:35:26;;;;;;;8.38;7.97;;;;;;;17.62;89.89;100109.31;5041353;28;20077;-63
2022/10/29 04:37:54;;;;;;;4.90;4.60;;;;;;;17.64;90.44;100104.19;5050612;28;20048;-63
2022/10/29 04:40:23;;;;;;;4.28;4.00;;;;;;;17.63;90.40;100076.25;5049945;28;20050;-64
2022/10/29 04:42:50;;;;;;;3.67;3.47;;;;;;;17.66;90.31;100101.00;5048454;28;20049;-63
2022/10/29 04:45:17;;;;;;;3.97;3.78;;;;;;;17.69;90.71;100075.72;5048770;28;20064;-63
2022/10/29 04:47:44;;;;;;;2.80;2.60;;;;;;;17.71;90.47;100058.47;5047624;28;20049;-63
2022/10/29 04:50:11;;;;;;;3.40;3.20;;;;;;;17.79;90.45;100073.72;5049723;28;20072;-62
2022/10/29 04:52:38;;;;;;;3.20;2.97;;;;;;;17.79;90.68;100083.03;5050832;28;20068;-64
2022/10/29 04:55:05;;;;;;;2.83;2.63;;;;;;;17.87;90.51;100120.84;5049257;28;20076;-63
2022/10/29 04:57:32;;;;;;;3.35;3.05;;;;;;;17.89;90.95;100147.59;5051358;28;20057;-63
2022/10/29 04:59:59;;;;;;;4.70;3.95;;;;;;;17.99;90.90;100141.56;5046892;28;20041;-62
2022/10/29 05:02:26;;;;;;;7.13;5.68;;;;;;;18.02;90.59;100175.94;5044634;28;20048;-63
2022/10/29 05:04:53;;;;;;;10.20;5.03;;;;;;;17.94;89.92;100166.34;5053507;28;20053;-64
2022/10/29 05:07:19;;;;;;;4.30;3.67;;;;;;;17.82;89.79;100132.38;5058615;28;20049;-66
2022/10/29 05:09:46;;;;;;;7.28;4.72;;;;;;;17.89;89.59;100141.13;5061853;28;20056;-67
2022/10/29 05:12:13;;;;;;;8.48;4.95;;;;;;;17.86;89.61;100122.84;5066397;28;20057;-65
2022/10/29 05:14:39;;;;;;;6.82;4.32;;;;;;;17.93;89.83;100157.06;5053416;28;20664;-64
2022/10/29 05:17:06;;;;;;;6.70;4.32;;;;;;;17.93;89.87;100151.41;5065753;28;20057;-63
2022/10/29 05:19:38;;;;;;;8.98;5.13;;;;;;;18.02;89.73;100139.22;5045760;28;20053;-63
2022/10/29 05:22:05;;;;;;;11.63;5.35;;;;;;;18.03;89.49;100133.25;5045874;28;20053;-63
2022/10/29 05:24:31;;;;;;;9.70;6.15;;;;;;;18.08;89.13;100141.50;5038612;28;20504;-62
2022/10/29 05:26:58;;;;;;;9.80;5.53;;;;;;;18.20;88.88;100133.13;5046461;28;20060;-63
2022/10/29 05:29:25;;;;;;;6.15;4.20;;;;;;;18.22;88.64;100159.06;5048743;28;20060;-63
2022/10/29 05:31:53;;;;;;;9.85;5.15;;;;;;;18.26;88.10;100147.09;5049619;28;20132;-63
2022/10/29 05:34:20;;;;;;;6.65;4.55;;;;;;;18.30;87.65;100171.47;5052399;28;20057;-64
2022/10/29 05:36:47;;;;;;;5.38;4.30;;;;;;;18.23;87.22;100166.38;5047653;28;20058;-63
2022/10/29 05:39:14;;;;;;;8.05;4.93;;;;;;;18.24;87.11;100139.75;5042376;28;20516;-64
2022/10/29 05:41:41;;;;;;;9.55;4.28;;;;;;;18.28;86.95;100178.66;5048829;28;20063;-63
2022/10/29 05:44:08;;;;;;;5.57;4.43;;;;;;;18.26;86.67;100158.38;5050220;28;20052;-63
2022/10/29 05:46:35;;;;;;;9.13;5.00;;;;;;;18.31;86.70;100181.63;5049509;28;20055;-63
2022/10/29 05:49:02;;;;;;;10.32;5.82;;;;;;;18.16;86.13;100222.59;5044803;28;20052;-64
2022/10/29 05:51:29;;;;;;;12.82;8.10;;;;;;;17.78;87.09;100205.66;5050774;28;20056;-64
2022/10/29 05:53:56;;;;;;;9.07;7.60;;;;;;;17.33;88.56;100205.22;5046972;28;20048;-65
2022/10/29 05:56:23;;;;;;;18.55;16.85;;;;;;;17.19;89.70;100223.16;5053971;28;20049;-66
2022/10/29 05:58:50;;;;;;;18.15;16.60;;;;;;;17.02;90.67;100189.31;5045370;28;20045;-63
2022/10/29 06:01:18;;;;;;;19.95;18.95;;;;;;;16.89;90.58;100210.91;5042498;28;20056;-65
2022/10/29 06:03:46;;;;;;;20.02;18.83;;;;;;;16.81;90.87;100217.34;5042326;28;20060;-65
2022/10/29 06:06:12;;;;;;;18.65;17.75;;;;;;;16.70;91.17;100199.91;5054316;28;20072;-65
2022/10/29 06:08:39;;;;;;;18.67;17.77;;;;;;;16.62;91.07;100243.03;5061864;28;20112;-64
2022/10/29 06:11:06;;;;;;;19.50;18.52;;;;;;;16.58;91.50;100242.84;5048709;28;20056;-65
2022/10/29 06:13:33;;;;;;;19.00;18.10;;;;;;;16.54;91.61;100274.81;5040912;28;20064;-66
2022/10/29 06:16:00;;;;;;;18.05;17.25;;;;;;;16.58;91.95;100289.91;5049470;28;20056;-64
2022/10/29 06:18:28;;;;;;;18.95;18.05;;;;;;;16.50;91.65;100285.09;5044016;28;20050;-63
2022/10/29 06:20:58;;;;;;;18.50;17.70;;;;;;;16.49;91.85;100255.25;5045441;28;20080;-67
2022/10/29 06:23:26;;;;;;;17.95;17.15;;;;;;;16.54;91.93;100219.25;5046980;28;20510;-66
2022/10/29 06:25:53;;;;;;;18.17;17.38;;;;;;;16.61;92.35;100235.69;5079006;28;20049;-65
2022/10/29 06:28:19;;;;;;;18.58;17.67;;;;;;;16.55;91.99;100251.13;5044372;28;20057;-66
2022/10/29 06:30:50;;;;;;;18.52;17.63;;;;;;;16.45;92.24;100242.97;5043894;28;20535;-65
2022/10/29 06:33:17;;;;;;;17.80;17.00;;;;;;;16.56;92.24;100272.50;5044170;28;20424;-67
2022/10/29 06:35:45;;;;;;;17.45;16.65;;;;;;;16.50;92.05;100285.09;5046289;28;20052;-63
2022/10/29 06:38:13;;;;;;;17.40;16.60;;;;;;;16.49;92.51;100283.44;5046081;28;20447;-63
2022/10/29 06:40:40;;;;;;;17.70;16.90;;;;;;;16.56;92.55;100286.59;5049828;28;20052;-64
2022/10/29 06:43:11;;;;;;;17.60;16.80;;;;;;;16.51;92.22;100292.38;5051238;28;20061;-65
2022/10/29 06:45:38;;;;;;;18.00;17.20;;;;;;;16.52;92.52;100296.88;5058853;28;20053;-64
2022/10/29 06:48:05;;;;;;;17.15;16.40;;;;;;;16.54;92.41;100289.75;5055188;28;20051;-62
2022/10/29 06:50:32;;;;;;;17.08;16.35;;;;;;;16.49;92.48;100289.06;5052606;28;20053;-64
2022/10/29 06:53:00;;;;;;;16.90;16.20;;;;;;;16.41;92.48;100241.94;5047570;28;20049;-64
2022/10/29 06:55:28;;;;;;;17.00;16.30;;;;;;;16.34;92.84;100277.09;5050798;28;20057;-64
2022/10/29 06:57:59;;;;;;;16.88;16.17;;;;;;;16.40;92.72;100297.50;5047123;28;20045;-64
2022/10/29 07:00:27;;;;;;;16.60;15.90;;;;;;;16.38;93.04;100254.72;5047046;28;20400;-63
2022/10/29 07:02:55;;;;;;;17.20;16.50;;;;;;;16.33;93.18;100274.59;5047277;28;20057;-64
2022/10/29 07:05:23;;;;;;;16.73;16.02;;;;;;;16.32;93.28;100282.22;5051422;28;20080;-63
2022/10/29 07:07:57;;;;;;;16.73;16.02;;;;;;;16.24;93.15;100254.00;5049286;28;20431;-63
2022/10/29 07:10:26;;;;;;;16.90;16.20;;;;;;;16.19;93.15;100260.63;5051000;28;20380;-64
2022/10/29 07:12:54;;;;;;;16.83;16.13;;;;;;;16.14;93.36;100238.25;5054205;28;20064;-64
2022/10/29 07:15:21;;;;;;;21.05;20.15;;;;;;;16.08;93.24;100217.00;5044527;28;20301;-64
2022/10/29 07:18:01;;;;;;;16.75;16.05;;;;;;;15.98;93.24;100206.03;5054054;28;20076;-64
2022/10/29 07:20:31;;;;;;;15.85;15.15;;;;;;;15.95;93.57;100223.56;5047939;28;20128;-64
2022/10/29 07:23:00;;;;;;;17.95;17.15;;;;;;;15.95;94.06;100271.44;5057030;28;20048;-64
2022/10/29 07:25:27;;;;;;;17.92;17.13;;;;;;;15.99;94.29;100297.81;5044159;28;20591;-63
2022/10/29 07:28:00;;;;;;;17.10;16.40;;;;;;;16.08;94.58;100307.13;5052278;28;20088;-63
2022/10/29 07:30:27;;;;;;;16.70;16.00;;;;;;;16.14;94.56;100293.72;5048619;28;20052;-62
2022/10/29 07:32:55;;;;;;;17.02;16.33;;;;;;;16.19;94.10;100302.06;5055316;28;20053;-64
2022/10/29 07:35:21;;;;;;;15.93;15.23;;;;;;;16.19;94.05;100313.31;5051812;28;20507;-64
2022/10/29 07:37:48;;;;;;;15.85;15.15;;;;;;;16.21;94.36;100313.84;5052756;28;20048;-64
2022/10/29 07:40:15;;;;;;;16.17;15.48;;;;;;;16.20;94.18;100304.53;5042055;28;20041;-64
2022/10/29 07:42:42;;;;;;;16.50;15.80;;;;;;;16.19;94.65;100324.59;5048668;28;20099;-64
2022/10/29 07:45:09;;;;;;;16.65;15.95;;;;;;;16.19;94.53;100331.06;5045686;28;20063;-65
2022/10/29 07:47:36;;;;;;;16.50;15.80;;;;;;;16.22;94.36;100341.69;5047452;28;20057;-65
2022/10/29 07:50:03;;;;;;;15.98;15.27;;;;;;;16.22;94.78;100349.31;5043370;28;20041;-64
2022/10/29 07:52:29;;;;;;;15.18;14.57;;;;;;;16.26;94.84;100362.41;5044837;28;20128;-64
2022/10/29 07:54:59;;;;;;;15.05;14.45;;;;;;;16.29;94.91;100370.22;5047300;28;20155;-64
2022/10/29 07:57:26;;;;;;;15.35;14.70;;;;;;;16.30;94.92;100365.41;5044912;28;20057;-64
2022/10/29 07:59:52;;;;;;;15.70;15.00;;;;;;;16.34;94.60;100366.41;5037663;28;20046;-64
2022/10/29 08:02:19;;;;;;;15.55;14.85;;;;;;;16.34;94.91;100367.28;5050368;28;20049;-64
2022/10/29 08:04:46;;;;;;;18.15;17.35;;;;;;;16.37;95.17;100370.59;5042937;28;20091;-64
2022/10/29 08:07:13;;;;;;;16.63;15.93;;;;;;;16.30;94.55;100352.16;5040165;28;20056;-65
2022/10/29 08:09:40;;;;;;;15.88;15.18;;;;;;;16.30;94.99;100371.88;5039602;28;20183;-64
2022/10/29 08:12:10;;;;;;;16.27;15.57;;;;;;;16.31;95.02;100334.09;5043715;28;20067;-63
2022/10/29 08:14:37;;;;;;;16.70;16.00;;;;;;;16.31;95.08;100365.09;5048799;28;20689;-65
2022/10/29 08:17:04;;;;;;;15.30;14.70;;;;;;;16.30;94.81;100380.31;5044817;28;20049;-64
2022/10/29 08:19:30;;;;;;;16.38;15.68;;;;;;;16.24;94.92;100367.56;5044630;28;20057;-64
2022/10/29 08:21:57;;;;;;;15.50;14.90;;;;;;;16.26;94.66;100362.41;5042501;28;20052;-63
2022/10/29 08:24:24;;;;;;;16.30;15.60;;;;;;;16.22;95.00;100372.66;5040854;28;20053;-64
2022/10/29 08:26:51;;;;;;;16.85;16.15;;;;;;;16.27;94.84;100383.81;5041127;28;20064;-64
2022/10/29 08:29:18;;;;;;;16.42;15.73;;;;;;;16.28;94.52;100396.75;5042967;28;20064;-63
2022/10/29 08:31:45;;;;;;;17.08;16.38;;;;;;;16.32;94.96;100396.94;5041413;28;20056;-62
2022/10/29 08:34:11;;;;;;;15.98;15.27;;;;;;;16.32;94.82;100411.84;5046285;28;20427;-63
2022/10/29 08:36:40;;;;;;;17.00;16.20;;;;;;;16.37;95.05;100415.69;5058842;28;20060;-63
2022/10/29 08:39:07;;;;;;;15.43;14.73;;;;;;;16.39;94.92;100402.09;5049134;28;20056;-62
2022/10/29 08:41:49;;;;;;;14.45;13.85;;;;;;;16.45;94.62;100398.00;5051064;28;20056;-63
2022/10/29 08:44:30;;;;;;;14.15;13.55;;;;;;;16.44;94.90;100382.22;5054397;28;20076;-63
2022/10/29 08:47:15;;;;;;;11.95;11.45;;;;;;;16.52;94.50;100379.47;5045186;28;20056;-62
2022/10/29 08:49:47;;;;;;;12.20;11.60;;;;;;;16.58;94.78;100378.16;5042909;28;20053;-63
2022/10/29 08:52:23;;;;;;;12.13;11.52;;;;;;;16.69;94.34;100389.97;5051503;28;20056;-63
2022/10/29 08:55:11;;;;;;;12.30;11.80;;;;;;;16.69;94.14;100392.78;5042458;28;20522;-63
2022/10/29 08:57:51;;;;;;;9.35;8.95;;;;;;;16.78;94.51;100402.13;5050556;28;20056;-63
2022/10/29 09:00:21;;;;;;;10.48;9.98;;;;;;;16.89;94.35;100408.34;5048135;28;20052;-62
2022/10/29 09:02:56;;;;;;;8.32;7.90;;;;;;;16.91;94.20;100417.28;5049438;28;20064;-63
2022/10/29 09:05:51;;;;;;;12.18;10.75;;;;;;;16.97;94.02;100429.25;5050544;28;20457;-62
2022/10/29 09:08:28;;;;;;;16.30;11.43;;;;;;;16.99;94.37;100427.78;5052999;28;20056;-62
2022/10/29 09:11:00;;;;;;;12.63;10.15;;;;;;;17.10;94.63;100422.66;5042970;28;20060;-62
2022/10/29 09:13:50;;;;;;;13.32;9.30;;;;;;;17.23;94.20;100409.56;5047774;28;20542;-63
2022/10/29 09:16:43;;;;;;;11.88;10.00;;;;;;;17.21;93.90;100404.25;5043655;28;20049;-62
2022/10/29 09:19:28;;;;;;;10.90;8.85;;;;;;;17.10;93.87;100411.38;5047546;28;20057;-61
2022/10/29 09:22:10;;;;;;;16.17;10.85;;;;;;;17.04;94.02;100415.50;5046112;28;20049;-62
2022/10/29 09:24:53;;;;;;;9.25;8.45;;;;;;;17.00;93.95;100417.31;5034478;28;20183;-62
2022/10/29 09:27:19;;;;;;;18.45;11.55;;;;;;;17.07;94.30;100431.78;5044819;28;20438;-63
2022/10/29 09:30:03;;;;;;;13.90;9.57;;;;;;;17.13;94.13;100409.88;5049271;28;20432;-63
2022/10/29 09:33:06;;;;;;;10.32;8.98;;;;;;;17.21;94.25;100438.13;5047371;28;20052;-63
2022/10/29 09:35:43;;;;;;;16.27;11.65;;;;;;;17.38;94.33;100433.69;5045609;28;20052;-62
2022/10/29 09:38:16;;;;;;;19.48;10.45;;;;;;;17.47;94.13;100431.69;5048691;28;20515;-63
2022/10/29 09:40:43;;;;;;;19.00;11.40;;;;;;;17.65;94.36;100424.91;5044005;28;20049;-63
2022/10/29 09:43:47;;;;;;;17.13;9.48;;;;;;;17.85;93.85;100425.47;5050643;28;20133;-63
2022/10/29 09:46:30;;;;;;;14.68;9.60;;;;;;;18.07;93.78;100439.38;5050050;28;20466;-63
2022/10/29 09:49:19;;;;;;;12.52;9.23;;;;;;;18.08;92.59;100441.03;5050088;28;20045;-63
2022/10/29 09:52:25;;;;;;;15.05;8.55;;;;;;;17.94;92.56;100435.56;5046663;28;20369;-62
2022/10/29 09:54:53;;;;;;;14.20;8.40;;;;;;;18.00;92.94;100442.72;5044457;28;20057;-62
2022/10/29 09:57:25;;;;;;;9.52;7.32;;;;;;;18.16;93.11;100443.03;5050756;28;20045;-62
2022/10/29 10:00:01;;;;;;;12.30;8.25;;;;;;;18.50;92.60;100432.84;5048250;28;20428;-61
2022/10/29 10:02:50;;;;;;;12.68;9.82;;;;;;;18.77;91.98;100439.25;5047403;28;20053;-63
2022/10/29 10:05:23;;;;;;;8.27;7.13;;;;;;;18.88;91.33;100434.91;5043139;28;20049;-63
2022/10/29 10:08:16;;;;;;;9.35;6.63;;;;;;;18.80;89.83;100447.06;5051415;28;20045;-62
2022/10/29 10:10:57;;;;;;;9.98;8.25;;;;;;;19.06;89.74;100436.47;5052524;28;20045;-63
2022/10/29 10:13:35;;;;;;;11.98;6.88;;;;;;;19.20;89.27;100429.72;5049166;28;20128;-63
2022/10/29 10:16:04;;;;;;;9.15;6.60;;;;;;;19.27;88.65;100425.19;5046135;28;20053;-63
2022/10/29 10:18:31;;;;;;;8.25;5.75;;;;;;;19.79;88.37;100438.19;5048513;28;20183;-62
2022/10/29 10:21:13;;;;;;;6.70;4.80;;;;;;;19.50;86.36;100431.38;5048600;28;20056;-62
2022/10/29 10:23:51;;;;;;;15.23;6.22;;;;;;;19.16;86.92;100436.06;5049895;28;20052;-62
2022/10/29 10:26:24;;;;;;;7.25;4.88;;;;;;;18.81;87.01;100441.06;5050005;28;20057;-61
2022/10/29 10:29:14;;;;;;;8.27;4.85;;;;;;;18.51;87.17;100428.84;5042289;28;20064;-61
2022/10/29 10:31:53;;;;;;;6.03;5.13;;;;;;;18.40;88.48;100436.03;5051310;28;20045;-62
2022/10/29 10:34:21;;;;;;;;;;;;;;;18.06;89.36;100436.91;5051519;28;20064;-62
2022/10/29 10:36:54;;;;;;;7.20;5.45;;;;;;;18.30;89.41;100436.38;5051494;28;19925;-62
2022/10/29 10:39:24;;;;;;;13.00;5.38;;;;;;;18.45;89.67;100461.28;5044951;28;20049;-61
2022/10/29 10:41:52;;;;;;;9.07;6.25;;;;;;;18.45;89.48;100466.94;5046623;28;20448;-62
2022/10/29 10:44:21;;;;;;;16.30;6.78;;;;;;;18.48;89.74;100469.09;5047149;28;20057;-62
2022/10/29 10:46:51;;;;;;;7.03;5.53;;;;;;;18.53;89.77;100462.41;5049154;28;20397;-62
2022/10/29 10:49:35;;;;;;;12.18;6.40;;;;;;;18.57;89.54;100480.41;5049316;28;20131;-62
2022/10/29 10:52:10;;;;;;;12.75;5.38;;;;;;;18.61;89.81;100473.72;5039835;28;20053;-62
2022/10/29 10:54:40;;;;;;;13.25;5.78;;;;;;;18.62;89.44;100483.03;5040737;28;20057;-62
2022/10/29 10:57:10;;;;;;;10.32;5.72;;;;;;;18.55;89.06;100477.88;5040459;28;20115;-62
2022/10/29 10:59:55;;;;;;;6.38;4.28;;;;;;;18.44;88.60;100482.25;5042975;28;20045;-62
2022/10/29 11:02:46;;;;;;;11.07;5.10;;;;;;;18.31;88.53;100478.44;5047343;28;20049;-62
2022/10/29 11:05:22;;;;;;;14.13;5.72;;;;;;;18.18;88.53;100457.66;5048607;28;20056;-62
2022/10/29 11:08:06;;;;;;;9.00;5.95;;;;;;;18.03;89.04;100449.69;5047101;28;20095;-62
2022/10/29 11:10:40;;;;;;;9.82;5.15;;;;;;;18.10;88.94;100471.81;5048734;28;20423;-62
2022/10/29 11:13:14;;;;;;;8.32;5.10;;;;;;;17.99;88.96;100480.63;5048503;28;20483;-62
2022/10/29 11:15:49;;;;;;;11.35;5.53;;;;;;;17.83;88.91;100478.63;5048473;28;20049;-62
2022/10/29 11:18:41;;;;;;;11.93;6.38;;;;;;;17.64;89.63;100485.38;5050631;28;20132;-61
2022/10/29 11:21:14;;;;;;;10.35;6.38;;;;;;;17.55;90.23;100504.28;5047732;28;20368;-62
2022/10/29 11:23:40;;;;;;;11.77;6.70;;;;;;;17.44;90.88;100500.13;5051932;28;20500;-62
2022/10/29 11:26:24;;;;;;;10.70;5.75;;;;;;;17.27;90.75;100470.69;5050142;28;20064;-62
2022/10/29 11:28:58;;;;;;;8.98;6.68;;;;;;;17.25;91.51;100481.47;5045138;28;20393;-63
2022/10/29 11:32:02;;;;;;;14.18;8.00;;;;;;;17.12;91.43;100473.13;5053416;28;20049;-62
2022/10/29 11:35:03;;;;;;;20.42;7.20;;;;;;;17.15;91.45;100476.13;5050332;28;20530;-62
2022/10/29 11:37:37;;;;;;;;;;;;;;;16.84;92.43;100464.03;5045098;28;20049;-62
2022/10/29 11:40:10;;;;;;;11.95;8.60;;;;;;;17.05;92.08;100445.38;5046764;28;19920;-62